createdAt,value
2017-08-26T00:00:22.875Z,0.00
2017-08-26T00:01:20.985Z,0.00
2017-08-26T00:02:20.955Z,0.00
2017-08-26T00:03:20.989Z,0.00
2017-08-26T00:04:20.934Z,0.00
2017-08-26T00:05:20.899Z,0.00
2017-08-26T00:06:20.958Z,0.00
2017-08-26T00:07:21.386Z,0.00
2017-08-26T00:08:20.957Z,0.00
2017-08-26T00:09:21.600Z,0.00
2017-08-26T00:10:21.405Z,0.00
2017-08-26T00:11:20.931Z,0.00
2017-08-26T00:12:21.016Z,0.00
2017-08-26T00:13:20.977Z,0.00
2017-08-26T00:14:21.395Z,0.00
2017-08-26T00:15:20.993Z,0.00
2017-08-26T00:16:21.585Z,0.00
2017-08-26T00:17:20.969Z,0.00
2017-08-26T00:18:20.952Z,0.00
2017-08-26T00:19:20.970Z,0.00
2017-08-26T00:20:21.044Z,0.00
2017-08-26T00:21:21.406Z,0.00
2017-08-26T00:22:20.939Z,0.00
2017-08-26T00:23:21.021Z,0.00
2017-08-26T00:24:20.926Z,0.00
2017-08-26T00:25:20.922Z,0.00
2017-08-26T00:26:20.974Z,0.00
2017-08-26T00:27:20.974Z,0.00
2017-08-26T00:28:21.449Z,0.00
2017-08-26T00:29:20.891Z,0.00
2017-08-26T00:30:20.939Z,0.00
2017-08-26T00:31:20.907Z,0.00
2017-08-26T00:32:21.426Z,0.00
2017-08-26T00:33:20.947Z,0.00
2017-08-26T00:34:20.978Z,0.00
2017-08-26T00:35:21.014Z,0.00
2017-08-26T00:36:21.437Z,0.00
2017-08-26T00:37:20.926Z,0.00
2017-08-26T00:38:20.923Z,0.00
2017-08-26T00:39:20.933Z,0.00
2017-08-26T00:40:20.951Z,0.00
2017-08-26T00:41:21.049Z,0.00
2017-08-26T00:42:20.926Z,0.00
2017-08-26T00:43:21.081Z,0.00
2017-08-26T00:44:20.987Z,0.00
2017-08-26T00:45:21.443Z,0.00
2017-08-26T00:46:20.950Z,0.00
2017-08-26T00:47:20.881Z,0.00
2017-08-26T00:48:20.951Z,0.00
2017-08-26T00:49:20.989Z,0.00
2017-08-26T00:50:20.906Z,0.00
2017-08-26T00:51:20.895Z,0.00
2017-08-26T00:52:20.929Z,0.00
2017-08-26T00:53:20.944Z,0.00
2017-08-26T00:54:20.931Z,0.00
2017-08-26T00:55:20.867Z,0.00
2017-08-26T00:56:21.462Z,0.00
2017-08-26T00:57:21.593Z,0.00
2017-08-26T00:58:20.979Z,0.00
2017-08-26T00:59:21.639Z,0.00
2017-08-26T01:00:20.878Z,0.00
2017-08-26T01:01:20.982Z,0.00
2017-08-26T01:02:21.649Z,0.00
2017-08-26T01:03:20.959Z,0.00
2017-08-26T01:04:20.977Z,0.00
2017-08-26T01:05:21.581Z,0.00
2017-08-26T01:06:20.893Z,0.00
2017-08-26T01:07:20.950Z,0.00
2017-08-26T01:08:21.616Z,0.00
2017-08-26T01:09:21.583Z,0.00
2017-08-26T01:10:20.888Z,0.00
2017-08-26T01:11:20.959Z,0.00
2017-08-26T01:12:20.981Z,0.00
2017-08-26T01:13:21.509Z,0.00
2017-08-26T01:14:21.493Z,0.00
2017-08-26T01:15:20.897Z,0.00
2017-08-26T01:16:20.959Z,0.00
2017-08-26T01:17:20.871Z,0.00
2017-08-26T01:18:20.937Z,0.00
2017-08-26T01:19:21.499Z,0.00
2017-08-26T01:20:22.004Z,0.00
2017-08-26T01:21:20.857Z,0.00
2017-08-26T01:22:20.978Z,0.00
2017-08-26T01:23:20.980Z,0.00
2017-08-26T01:24:20.899Z,0.00
2017-08-26T01:25:20.918Z,0.00
2017-08-26T01:26:20.981Z,0.00
2017-08-26T01:27:20.863Z,0.00
2017-08-26T01:28:22.017Z,0.00
2017-08-26T01:29:20.929Z,0.00
2017-08-26T01:30:20.920Z,0.00
2017-08-26T01:31:21.518Z,0.00
2017-08-26T01:32:20.878Z,0.00
2017-08-26T01:33:21.713Z,0.00
2017-08-26T01:34:21.684Z,0.00
2017-08-26T01:35:21.525Z,0.00
2017-08-26T01:36:21.533Z,0.00
2017-08-26T01:37:21.090Z,0.00
2017-08-26T01:38:20.893Z,0.00
2017-08-26T01:39:20.940Z,0.00
2017-08-26T01:40:21.615Z,0.00
2017-08-26T01:41:20.851Z,0.00
2017-08-26T01:42:20.880Z,0.00
2017-08-26T01:43:20.895Z,0.00
2017-08-26T01:44:21.649Z,0.00
2017-08-26T01:45:21.656Z,0.00
2017-08-26T01:46:20.855Z,0.00
2017-08-26T01:47:20.836Z,0.00
2017-08-26T01:48:21.556Z,0.00
2017-08-26T01:49:21.019Z,0.00
2017-08-26T01:50:20.931Z,0.00
2017-08-26T01:51:20.985Z,0.00
2017-08-26T01:52:21.577Z,0.00
2017-08-26T01:53:20.924Z,0.00
2017-08-26T01:54:20.937Z,0.00
2017-08-26T01:55:20.876Z,0.00
2017-08-26T01:56:21.665Z,0.00
2017-08-26T01:57:21.559Z,0.00
2017-08-26T01:58:20.878Z,0.00
2017-08-26T01:59:20.942Z,0.00
2017-08-26T02:00:20.891Z,0.00
2017-08-26T02:01:20.889Z,0.00
2017-08-26T02:02:20.894Z,0.00
2017-08-26T02:03:21.568Z,0.00
2017-08-26T02:04:21.570Z,0.00
2017-08-26T02:05:20.936Z,0.00
2017-08-26T02:06:20.861Z,0.00
2017-08-26T02:07:20.956Z,0.00
2017-08-26T02:08:21.926Z,0.00
2017-08-26T02:09:21.585Z,0.00
2017-08-26T02:10:20.943Z,0.00
2017-08-26T02:11:21.772Z,0.00
2017-08-26T02:12:20.872Z,0.00
2017-08-26T02:13:20.878Z,0.00
2017-08-26T02:14:21.606Z,0.00
2017-08-26T02:15:20.910Z,0.00
2017-08-26T02:16:21.595Z,0.00
2017-08-26T02:17:20.910Z,0.00
2017-08-26T02:18:21.703Z,0.00
2017-08-26T02:19:20.910Z,0.00
2017-08-26T02:20:20.917Z,0.00
2017-08-26T02:21:20.910Z,0.00
2017-08-26T02:22:20.896Z,0.00
2017-08-26T02:23:20.888Z,0.00
2017-08-26T02:24:20.831Z,0.00
2017-08-26T02:25:21.454Z,0.00
2017-08-26T02:26:20.837Z,0.00
2017-08-26T02:27:21.606Z,0.00
2017-08-26T02:28:21.740Z,0.00
2017-08-26T02:29:20.856Z,0.00
2017-08-26T02:30:20.966Z,0.00
2017-08-26T02:31:20.861Z,0.00
2017-08-26T02:32:20.898Z,0.00
2017-08-26T02:33:21.769Z,0.00
2017-08-26T02:34:20.910Z,0.00
2017-08-26T02:35:20.941Z,0.00
2017-08-26T02:36:20.932Z,0.00
2017-08-26T02:37:20.928Z,0.00
2017-08-26T02:38:20.940Z,0.00
2017-08-26T02:39:20.982Z,0.00
2017-08-26T02:40:20.974Z,0.00
2017-08-26T02:41:21.636Z,0.00
2017-08-26T02:42:20.839Z,0.00
2017-08-26T02:43:20.899Z,0.00
2017-08-26T02:44:20.952Z,0.00
2017-08-26T02:45:20.923Z,0.00
2017-08-26T02:46:21.408Z,0.00
2017-08-26T02:47:20.841Z,0.00
2017-08-26T02:48:20.923Z,0.00
2017-08-26T02:49:20.938Z,0.00
2017-08-26T02:50:20.858Z,0.00
2017-08-26T02:51:20.946Z,0.00
2017-08-26T02:52:20.894Z,0.00
2017-08-26T02:53:21.648Z,0.00
2017-08-26T02:54:20.934Z,0.00
2017-08-26T02:55:20.938Z,0.00
2017-08-26T02:56:21.652Z,0.00
2017-08-26T02:57:20.918Z,0.00
2017-08-26T02:58:20.905Z,0.00
2017-08-26T02:59:21.820Z,0.00
2017-08-26T03:00:20.890Z,0.00
2017-08-26T03:01:20.936Z,0.00
2017-08-26T03:02:20.877Z,0.00
2017-08-26T03:03:20.879Z,0.00
2017-08-26T03:04:20.908Z,0.00
2017-08-26T03:05:20.869Z,0.00
2017-08-26T03:06:22.286Z,0.00
2017-08-26T03:07:21.671Z,0.00
2017-08-26T03:08:20.859Z,0.00
2017-08-26T03:09:21.699Z,0.00
2017-08-26T03:10:21.853Z,0.00
2017-08-26T03:11:21.761Z,0.00
2017-08-26T03:12:20.837Z,0.00
2017-08-26T03:13:20.915Z,0.00
2017-08-26T03:14:21.862Z,0.00
2017-08-26T03:15:20.972Z,0.00
2017-08-26T03:16:20.893Z,0.00
2017-08-26T03:17:20.884Z,0.00
2017-08-26T03:18:21.888Z,0.00
2017-08-26T03:19:21.691Z,0.00
2017-08-26T03:20:20.905Z,0.00
2017-08-26T03:21:21.694Z,0.00
2017-08-26T03:22:20.827Z,0.00
2017-08-26T03:23:21.698Z,0.00
2017-08-26T03:24:20.901Z,0.00
2017-08-26T03:25:20.877Z,0.00
2017-08-26T03:26:20.839Z,0.00
2017-08-26T03:27:20.870Z,0.00
2017-08-26T03:28:20.834Z,0.00
2017-08-26T03:29:20.838Z,0.00
2017-08-26T03:30:20.834Z,0.00
2017-08-26T03:31:20.848Z,0.00
2017-08-26T03:32:20.901Z,0.00
2017-08-26T03:33:20.961Z,0.00
2017-08-26T03:34:20.838Z,0.00
2017-08-26T03:35:20.849Z,0.00
2017-08-26T03:36:21.765Z,0.00
2017-08-26T03:37:21.847Z,0.00
2017-08-26T03:38:20.815Z,0.00
2017-08-26T03:39:20.872Z,0.00
2017-08-26T03:40:20.939Z,0.00
2017-08-26T03:41:20.854Z,0.00
2017-08-26T03:42:20.863Z,0.00
2017-08-26T03:43:20.831Z,0.00
2017-08-26T03:44:20.833Z,0.00
2017-08-26T03:45:20.799Z,0.00
2017-08-26T03:46:20.840Z,0.00
2017-08-26T03:47:21.736Z,0.00
2017-08-26T03:48:21.501Z,0.00
2017-08-26T03:49:20.829Z,0.00
2017-08-26T03:50:20.936Z,0.00
2017-08-26T03:51:20.945Z,0.00
2017-08-26T03:52:21.891Z,0.00
2017-08-26T03:53:21.743Z,0.00
2017-08-26T03:54:21.254Z,0.00
2017-08-26T03:55:20.962Z,0.00
2017-08-26T03:56:20.803Z,0.00
2017-08-26T03:57:20.852Z,0.00
2017-08-26T03:58:20.817Z,0.00
2017-08-26T03:59:21.751Z,0.00
2017-08-26T04:00:20.954Z,0.00
2017-08-26T04:01:21.271Z,0.00
2017-08-26T04:02:20.936Z,0.00
2017-08-26T04:03:20.815Z,0.00
2017-08-26T04:04:21.261Z,0.00
2017-08-26T04:05:20.781Z,0.00
2017-08-26T04:06:21.374Z,0.00
2017-08-26T04:07:20.883Z,0.00
2017-08-26T04:08:21.766Z,0.00
2017-08-26T04:09:20.824Z,0.00
2017-08-26T04:10:21.285Z,0.00
2017-08-26T04:11:20.864Z,4.00
2017-08-26T04:12:21.412Z,4.00
2017-08-26T04:13:21.397Z,0.00
2017-08-26T04:14:21.275Z,4.00
2017-08-26T04:15:20.770Z,4.00
2017-08-26T04:16:20.863Z,4.00
2017-08-26T04:17:21.287Z,8.00
2017-08-26T04:18:20.859Z,8.00
2017-08-26T04:19:20.827Z,16.00
2017-08-26T04:20:20.879Z,20.00
2017-08-26T04:21:20.871Z,20.00
2017-08-26T04:22:20.864Z,24.00
2017-08-26T04:23:21.436Z,28.00
2017-08-26T04:24:20.842Z,28.00
2017-08-26T04:25:20.817Z,36.00
2017-08-26T04:26:21.295Z,36.00
2017-08-26T04:27:20.849Z,40.00
2017-08-26T04:28:21.903Z,48.00
2017-08-26T04:29:20.898Z,56.00
2017-08-26T04:30:20.866Z,60.00
2017-08-26T04:31:20.842Z,68.00
2017-08-26T04:32:20.841Z,84.00
2017-08-26T04:33:20.913Z,92.00
2017-08-26T04:34:20.822Z,104.00
2017-08-26T04:35:21.313Z,116.00
2017-08-26T04:36:21.837Z,124.00
2017-08-26T04:37:20.947Z,132.00
2017-08-26T04:38:21.509Z,144.00
2017-08-26T04:39:20.788Z,160.00
2017-08-26T04:40:20.868Z,172.00
2017-08-26T04:41:21.331Z,176.00
2017-08-26T04:42:20.786Z,172.00
2017-08-26T04:43:20.866Z,176.00
2017-08-26T04:44:20.826Z,188.00
2017-08-26T04:45:21.411Z,212.00
2017-08-26T04:46:20.885Z,248.00
2017-08-26T04:47:21.470Z,292.00
2017-08-26T04:48:21.329Z,336.00
2017-08-26T04:49:20.914Z,372.00
2017-08-26T04:50:20.816Z,400.00
2017-08-26T04:51:20.820Z,432.00
2017-08-26T04:52:21.471Z,484.00
2017-08-26T04:53:20.767Z,540.00
2017-08-26T04:54:20.802Z,612.00
2017-08-26T04:55:20.761Z,668.00
2017-08-26T04:56:21.927Z,700.00
2017-08-26T04:57:20.817Z,732.00
2017-08-26T04:58:21.346Z,760.00
2017-08-26T04:59:21.350Z,768.00
2017-08-26T05:00:20.888Z,812.00
2017-08-26T05:01:20.796Z,900.00
2017-08-26T05:02:20.826Z,1032.00
2017-08-26T05:03:20.822Z,1172.00
2017-08-26T05:04:21.116Z,1304.00
2017-08-26T05:05:20.932Z,1416.00
2017-08-26T05:06:21.358Z,1516.00
2017-08-26T05:07:20.848Z,1600.00
2017-08-26T05:08:21.366Z,1660.00
2017-08-26T05:09:20.867Z,1712.00
2017-08-26T05:10:21.365Z,1756.00
2017-08-26T05:11:20.732Z,1800.00
2017-08-26T05:12:21.455Z,1848.00
2017-08-26T05:13:20.823Z,1892.00
2017-08-26T05:14:20.883Z,1936.00
2017-08-26T05:15:20.754Z,1988.00
2017-08-26T05:16:20.872Z,2024.00
2017-08-26T05:17:20.859Z,2064.00
2017-08-26T05:18:21.384Z,2104.00
2017-08-26T05:19:20.962Z,2148.00
2017-08-26T05:20:22.383Z,2216.00
2017-08-26T05:21:21.477Z,2312.00
2017-08-26T05:22:21.393Z,2420.00
2017-08-26T05:23:22.392Z,2524.00
2017-08-26T05:24:21.388Z,2616.00
2017-08-26T05:25:20.821Z,2700.00
2017-08-26T05:26:20.818Z,2760.00
2017-08-26T05:27:20.818Z,2796.00
2017-08-26T05:28:20.789Z,2780.00
2017-08-26T05:29:20.790Z,2720.00
2017-08-26T05:30:22.400Z,2660.00
2017-08-26T05:31:21.411Z,2680.00
2017-08-26T05:32:20.849Z,2756.00
2017-08-26T05:33:20.867Z,2792.00
2017-08-26T05:34:21.406Z,2948.00
2017-08-26T05:35:20.799Z,3168.00
2017-08-26T05:36:20.778Z,3364.00
2017-08-26T05:37:20.776Z,3620.00
2017-08-26T05:38:20.849Z,3864.00
2017-08-26T05:39:20.828Z,4120.00
2017-08-26T05:40:20.817Z,4328.00
2017-08-26T05:41:20.903Z,4592.00
2017-08-26T05:42:21.417Z,4844.00
2017-08-26T05:43:20.853Z,5076.00
2017-08-26T05:44:21.428Z,5208.00
2017-08-26T05:45:20.755Z,5392.00
2017-08-26T05:46:21.426Z,5492.00
2017-08-26T05:47:21.566Z,5580.00
2017-08-26T05:48:20.739Z,5536.00
2017-08-26T05:49:20.731Z,5444.00
2017-08-26T05:50:21.503Z,5388.00
2017-08-26T05:51:21.436Z,5488.00
2017-08-26T05:52:22.433Z,5760.00
2017-08-26T05:53:20.774Z,5784.00
2017-08-26T05:54:21.618Z,5608.00
2017-08-26T05:55:20.828Z,5492.00
2017-08-26T05:56:20.819Z,5260.00
2017-08-26T05:57:20.786Z,5080.00
2017-08-26T05:58:22.455Z,5028.00
2017-08-26T05:59:21.442Z,5132.00
2017-08-26T06:00:20.837Z,5368.00
2017-08-26T06:01:20.871Z,5624.00
2017-08-26T06:02:20.832Z,5720.00
2017-08-26T06:03:21.531Z,5628.00
2017-08-26T06:04:20.777Z,5496.00
2017-08-26T06:05:20.882Z,5264.00
2017-08-26T06:06:20.853Z,5212.00
2017-08-26T06:07:20.929Z,5144.00
2017-08-26T06:08:20.789Z,5124.00
2017-08-26T06:09:21.582Z,5140.00
2017-08-26T06:10:21.459Z,5168.00
2017-08-26T06:11:20.727Z,5216.00
2017-08-26T06:12:20.813Z,5284.00
2017-08-26T06:13:21.467Z,5348.00
2017-08-26T06:14:20.796Z,5392.00
2017-08-26T06:15:20.778Z,5448.00
2017-08-26T06:16:20.846Z,5500.00
2017-08-26T06:17:20.806Z,5528.00
2017-08-26T06:18:21.498Z,5540.00
2017-08-26T06:19:20.820Z,5544.00
2017-08-26T06:20:20.792Z,5552.00
2017-08-26T06:21:20.769Z,5580.00
2017-08-26T06:22:21.510Z,5620.00
2017-08-26T06:23:20.803Z,5660.00
2017-08-26T06:24:20.728Z,5712.00
2017-08-26T06:25:20.814Z,5760.00
2017-08-26T06:26:20.874Z,5812.00
2017-08-26T06:27:20.778Z,5852.00
2017-08-26T06:28:20.733Z,5920.00
2017-08-26T06:29:20.794Z,5996.00
2017-08-26T06:30:20.764Z,6060.00
2017-08-26T06:31:21.609Z,6120.00
2017-08-26T06:32:20.803Z,6192.00
2017-08-26T06:33:20.765Z,6256.00
2017-08-26T06:34:20.768Z,6320.00
2017-08-26T06:35:20.713Z,6404.00
2017-08-26T06:36:20.848Z,6404.00
2017-08-26T06:37:20.794Z,6408.00
2017-08-26T06:38:20.810Z,6392.00
2017-08-26T06:39:20.766Z,6404.00
2017-08-26T06:40:20.847Z,6440.00
2017-08-26T06:41:20.895Z,6448.00
2017-08-26T06:42:20.740Z,6456.00
2017-08-26T06:43:20.772Z,6504.00
2017-08-26T06:44:21.550Z,6524.00
2017-08-26T06:45:20.832Z,6548.00
2017-08-26T06:46:21.598Z,6572.00
2017-08-26T06:47:21.522Z,6604.00
2017-08-26T06:48:20.854Z,6652.00
2017-08-26T06:49:20.879Z,6704.00
2017-08-26T06:50:20.776Z,6740.00
2017-08-26T06:51:20.706Z,6776.00
2017-08-26T06:52:21.558Z,6816.00
2017-08-26T06:53:20.750Z,6848.00
2017-08-26T06:54:20.775Z,6868.00
2017-08-26T06:55:20.919Z,6916.00
2017-08-26T06:56:21.672Z,6944.00
2017-08-26T06:57:20.763Z,6980.00
2017-08-26T06:58:20.736Z,7012.00
2017-08-26T06:59:20.774Z,7068.00
2017-08-26T07:00:20.802Z,7100.00
2017-08-26T07:01:20.817Z,7128.00
2017-08-26T07:02:21.730Z,7192.00
2017-08-26T07:03:20.767Z,7228.00
2017-08-26T07:04:20.825Z,7288.00
2017-08-26T07:05:21.556Z,7380.00
2017-08-26T07:06:21.678Z,7392.00
2017-08-26T07:07:20.805Z,7420.00
2017-08-26T07:08:20.887Z,7464.00
2017-08-26T07:09:21.710Z,7568.00
2017-08-26T07:10:20.734Z,7632.00
2017-08-26T07:11:20.782Z,7760.00
2017-08-26T07:12:20.732Z,7988.00
2017-08-26T07:13:21.566Z,8188.00
2017-08-26T07:14:21.563Z,8500.00
2017-08-26T07:15:21.591Z,9340.00
2017-08-26T07:16:21.566Z,9376.00
2017-08-26T07:17:21.086Z,9512.00
2017-08-26T07:18:20.835Z,9224.00
2017-08-26T07:19:20.813Z,8740.00
2017-08-26T07:20:20.785Z,8492.00
2017-08-26T07:21:22.582Z,8320.00
2017-08-26T07:22:20.937Z,8316.00
2017-08-26T07:23:21.278Z,8636.00
2017-08-26T07:24:20.758Z,8940.00
2017-08-26T07:25:20.775Z,9464.00
2017-08-26T07:26:20.779Z,9092.00
2017-08-26T07:27:20.871Z,8476.00
2017-08-26T07:28:20.811Z,8612.00
2017-08-26T07:29:21.586Z,8672.00
2017-08-26T07:30:20.724Z,8744.00
2017-08-26T07:31:20.695Z,9108.00
2017-08-26T07:32:20.793Z,9300.00
2017-08-26T07:33:20.860Z,9480.00
2017-08-26T07:34:21.595Z,9536.00
2017-08-26T07:35:20.816Z,9092.00
2017-08-26T07:36:20.763Z,8972.00
2017-08-26T07:37:20.715Z,8864.00
2017-08-26T07:38:20.770Z,8988.00
2017-08-26T07:39:21.604Z,9000.00
2017-08-26T07:40:20.842Z,9128.00
2017-08-26T07:41:20.803Z,9292.00
2017-08-26T07:42:21.608Z,9496.00
2017-08-26T07:43:20.742Z,9708.00
2017-08-26T07:44:20.812Z,9780.00
2017-08-26T07:45:20.731Z,9632.00
2017-08-26T07:46:20.822Z,9796.00
2017-08-26T07:47:21.618Z,10456.00
2017-08-26T07:48:20.813Z,11060.00
2017-08-26T07:49:20.869Z,11088.00
2017-08-26T07:50:20.821Z,10796.00
2017-08-26T07:51:22.624Z,10316.00
2017-08-26T07:52:20.795Z,10012.00
2017-08-26T07:53:20.797Z,10152.00
2017-08-26T07:54:20.789Z,10636.00
2017-08-26T07:55:20.847Z,11172.00
2017-08-26T07:56:21.654Z,11840.00
2017-08-26T07:57:21.136Z,10972.00
2017-08-26T07:58:20.811Z,10132.00
2017-08-26T07:59:21.636Z,9956.00
2017-08-26T08:00:21.139Z,10064.00
2017-08-26T08:01:20.840Z,10252.00
2017-08-26T08:02:22.142Z,10436.00
2017-08-26T08:03:20.790Z,10572.00
2017-08-26T08:04:21.151Z,10532.00
2017-08-26T08:05:21.651Z,10600.00
2017-08-26T08:06:20.822Z,11004.00
2017-08-26T08:07:20.801Z,11304.00
2017-08-26T08:08:20.817Z,11584.00
2017-08-26T08:09:20.721Z,11792.00
2017-08-26T08:10:20.808Z,11884.00
2017-08-26T08:11:20.772Z,12140.00
2017-08-26T08:12:20.799Z,12688.00
2017-08-26T08:13:20.809Z,12588.00
2017-08-26T08:14:20.792Z,11648.00
2017-08-26T08:15:20.792Z,11852.00
2017-08-26T08:16:20.788Z,11696.00
2017-08-26T08:17:20.784Z,11332.00
2017-08-26T08:18:21.362Z,11076.00
2017-08-26T08:19:20.844Z,10924.00
2017-08-26T08:20:20.728Z,11124.00
2017-08-26T08:21:20.722Z,11260.00
2017-08-26T08:22:20.770Z,11272.00
2017-08-26T08:23:20.746Z,11328.00
2017-08-26T08:24:20.858Z,11356.00
2017-08-26T08:25:20.736Z,11396.00
2017-08-26T08:26:20.829Z,11312.00
2017-08-26T08:27:20.736Z,11528.00
2017-08-26T08:28:20.701Z,11688.00
2017-08-26T08:29:21.346Z,11624.00
2017-08-26T08:30:20.693Z,11752.00
2017-08-26T08:31:20.734Z,12076.00
2017-08-26T08:32:21.256Z,12064.00
2017-08-26T08:33:21.309Z,12428.00
2017-08-26T08:34:20.795Z,12624.00
2017-08-26T08:35:22.208Z,12368.00
2017-08-26T08:36:21.200Z,12012.00
2017-08-26T08:37:21.294Z,12236.00
2017-08-26T08:38:20.818Z,12600.00
2017-08-26T08:39:20.845Z,12488.00
2017-08-26T08:40:20.748Z,12328.00
2017-08-26T08:41:21.208Z,12300.00
2017-08-26T08:42:20.802Z,12048.00
2017-08-26T08:43:20.779Z,12212.00
2017-08-26T08:44:20.731Z,12820.00
2017-08-26T08:45:21.366Z,12644.00
2017-08-26T08:46:21.242Z,12928.00
2017-08-26T08:47:20.758Z,12932.00
2017-08-26T08:48:20.765Z,12836.00
2017-08-26T08:49:21.219Z,12940.00
2017-08-26T08:50:21.221Z,12816.00
2017-08-26T08:51:20.697Z,13012.00
2017-08-26T08:52:20.744Z,12816.00
2017-08-26T08:53:20.767Z,12576.00
2017-08-26T08:54:21.375Z,13172.00
2017-08-26T08:55:21.241Z,12584.00
2017-08-26T08:56:20.752Z,13232.00
2017-08-26T08:57:20.703Z,13088.00
2017-08-26T08:58:20.681Z,12704.00
2017-08-26T08:59:20.862Z,13104.00
2017-08-26T09:00:21.237Z,13656.00
2017-08-26T09:01:21.242Z,14592.00
2017-08-26T09:02:20.791Z,14196.00
2017-08-26T09:03:21.353Z,13984.00
2017-08-26T09:04:21.757Z,14324.00
2017-08-26T09:05:20.690Z,14280.00
2017-08-26T09:06:20.807Z,14336.00
2017-08-26T09:07:20.719Z,14336.00
2017-08-26T09:08:20.691Z,14340.00
2017-08-26T09:09:21.257Z,14436.00
2017-08-26T09:10:20.803Z,13948.00
2017-08-26T09:11:21.456Z,13836.00
2017-08-26T09:12:20.721Z,13884.00
2017-08-26T09:13:21.260Z,14064.00
2017-08-26T09:14:21.268Z,13872.00
2017-08-26T09:15:20.757Z,14180.00
2017-08-26T09:16:20.733Z,14804.00
2017-08-26T09:17:20.688Z,15072.00
2017-08-26T09:18:21.767Z,15132.00
2017-08-26T09:19:21.269Z,15096.00
2017-08-26T09:20:20.734Z,14520.00
2017-08-26T09:21:21.364Z,14648.00
2017-08-26T09:22:21.279Z,15012.00
2017-08-26T09:23:20.701Z,15468.00
2017-08-26T09:24:22.298Z,15676.00
2017-08-26T09:25:20.774Z,16224.00
2017-08-26T09:26:22.301Z,17012.00
2017-08-26T09:27:20.713Z,17328.00
2017-08-26T09:28:21.308Z,17488.00
2017-08-26T09:29:20.708Z,17268.00
2017-08-26T09:30:20.766Z,16900.00
2017-08-26T09:31:20.749Z,17108.00
2017-08-26T09:32:20.695Z,16828.00
2017-08-26T09:33:20.699Z,17032.00
2017-08-26T09:34:21.526Z,17492.00
2017-08-26T09:35:20.694Z,18228.00
2017-08-26T09:36:21.306Z,19360.00
2017-08-26T09:37:20.701Z,20096.00
2017-08-26T09:38:21.413Z,19520.00
2017-08-26T09:39:20.697Z,18252.00
2017-08-26T09:40:20.741Z,19360.00
2017-08-26T09:41:20.733Z,20384.00
2017-08-26T09:42:20.824Z,20704.00
2017-08-26T09:43:20.673Z,21472.00
2017-08-26T09:44:20.648Z,22112.00
2017-08-26T09:45:21.325Z,22144.00
2017-08-26T09:46:20.743Z,21760.00
2017-08-26T09:47:20.745Z,20960.00
2017-08-26T09:48:20.626Z,19552.00
2017-08-26T09:49:21.343Z,18864.00
2017-08-26T09:50:21.322Z,18360.00
2017-08-26T09:51:20.735Z,18072.00
2017-08-26T09:52:20.729Z,18188.00
2017-08-26T09:53:22.330Z,18280.00
2017-08-26T09:54:20.649Z,18404.00
2017-08-26T09:55:20.742Z,18636.00
2017-08-26T09:56:20.723Z,18820.00
2017-08-26T09:57:20.813Z,18976.00
2017-08-26T09:58:21.337Z,19092.00
2017-08-26T09:59:21.350Z,18720.00
2017-08-26T10:00:20.714Z,19392.00
2017-08-26T10:01:21.849Z,19328.00
2017-08-26T10:02:20.684Z,19264.00
2017-08-26T10:03:20.630Z,18896.00
2017-08-26T10:04:20.691Z,20128.00
2017-08-26T10:05:21.439Z,20000.00
2017-08-26T10:06:20.890Z,19680.00
2017-08-26T10:07:21.357Z,19260.00
2017-08-26T10:08:21.376Z,18832.00
2017-08-26T10:09:20.673Z,19240.00
2017-08-26T10:10:20.679Z,20320.00
2017-08-26T10:11:21.362Z,20704.00
2017-08-26T10:12:20.771Z,20768.00
2017-08-26T10:13:20.650Z,20736.00
2017-08-26T10:14:21.460Z,20992.00
2017-08-26T10:15:20.644Z,21344.00
2017-08-26T10:16:21.367Z,21728.00
2017-08-26T10:17:20.749Z,21984.00
2017-08-26T10:18:20.684Z,22144.00
2017-08-26T10:19:20.706Z,22496.00
2017-08-26T10:20:22.374Z,23392.00
2017-08-26T10:21:22.065Z,24736.00
2017-08-26T10:22:21.378Z,25792.00
2017-08-26T10:23:21.666Z,25920.00
2017-08-26T10:24:20.695Z,25696.00
2017-08-26T10:25:21.389Z,23648.00
2017-08-26T10:26:21.385Z,24352.00
2017-08-26T10:27:20.683Z,23552.00
2017-08-26T10:28:20.669Z,23520.00
2017-08-26T10:29:21.574Z,23904.00
2017-08-26T10:30:20.780Z,24256.00
2017-08-26T10:31:22.539Z,24672.00
2017-08-26T10:32:21.399Z,25248.00
2017-08-26T10:33:21.396Z,25728.00
2017-08-26T10:34:20.673Z,25824.00
2017-08-26T10:35:21.403Z,26240.00
2017-08-26T10:36:20.689Z,26336.00
2017-08-26T10:37:21.409Z,25760.00
2017-08-26T10:38:20.708Z,25312.00
2017-08-26T10:39:21.501Z,25024.00
2017-08-26T10:40:21.508Z,24640.00
2017-08-26T10:41:21.411Z,24704.00
2017-08-26T10:42:21.914Z,24384.00
2017-08-26T10:43:20.703Z,23648.00
2017-08-26T10:44:21.940Z,23776.00
2017-08-26T10:45:20.668Z,24640.00
2017-08-26T10:46:20.693Z,24896.00
2017-08-26T10:47:20.696Z,24704.00
2017-08-26T10:48:20.669Z,24480.00
2017-08-26T10:49:21.426Z,25568.00
2017-08-26T10:50:20.690Z,26816.00
2017-08-26T10:51:21.429Z,27200.00
2017-08-26T10:52:20.725Z,23968.00
2017-08-26T10:53:22.432Z,23360.00
2017-08-26T10:54:20.682Z,23648.00
2017-08-26T10:55:21.451Z,23840.00
2017-08-26T10:56:20.652Z,24288.00
2017-08-26T10:57:21.444Z,24992.00
2017-08-26T10:58:20.641Z,25440.00
2017-08-26T10:59:21.643Z,26720.00
2017-08-26T11:00:21.675Z,26304.00
2017-08-26T11:01:21.620Z,26240.00
2017-08-26T11:02:20.713Z,26816.00
2017-08-26T11:03:21.459Z,26976.00
2017-08-26T11:04:22.455Z,27360.00
2017-08-26T11:05:20.683Z,27456.00
2017-08-26T11:06:20.663Z,27904.00
2017-08-26T11:07:20.667Z,28064.00
2017-08-26T11:08:20.703Z,28320.00
2017-08-26T11:09:20.682Z,28160.00
2017-08-26T11:10:21.471Z,27616.00
2017-08-26T11:11:20.721Z,27424.00
2017-08-26T11:12:21.550Z,27296.00
2017-08-26T11:13:20.718Z,27616.00
2017-08-26T11:14:20.679Z,28384.00
2017-08-26T11:15:20.587Z,28960.00
2017-08-26T11:16:20.684Z,29824.00
2017-08-26T11:17:20.659Z,30784.00
2017-08-26T11:18:20.709Z,30912.00
2017-08-26T11:19:20.625Z,31328.00
2017-08-26T11:20:20.617Z,31072.00
2017-08-26T11:21:20.568Z,30880.00
2017-08-26T11:22:20.727Z,30432.00
2017-08-26T11:23:20.642Z,30560.00
2017-08-26T11:24:20.583Z,30784.00
2017-08-26T11:25:20.577Z,31616.00
2017-08-26T11:26:21.655Z,31328.00
2017-08-26T11:27:20.703Z,49824.00
2017-08-26T11:28:20.702Z,70816.00
2017-08-26T11:29:20.667Z,71840.00
2017-08-26T11:30:20.610Z,68896.00
2017-08-26T11:31:20.675Z,48736.00
2017-08-26T11:32:20.635Z,70944.00
2017-08-26T11:33:20.695Z,64352.00
2017-08-26T11:34:20.637Z,70784.00
2017-08-26T11:35:20.660Z,66784.00
2017-08-26T11:36:21.583Z,71328.00
2017-08-26T11:37:20.719Z,70400.00
2017-08-26T11:38:20.711Z,71136.00
2017-08-26T11:39:20.677Z,73440.00
2017-08-26T11:40:21.575Z,73088.00
2017-08-26T11:41:20.748Z,73888.00
2017-08-26T11:42:21.519Z,73216.00
2017-08-26T11:43:20.714Z,74368.00
2017-08-26T11:44:21.651Z,73952.00
2017-08-26T11:45:20.689Z,72704.00
2017-08-26T11:46:20.730Z,73568.00
2017-08-26T11:47:21.158Z,70944.00
2017-08-26T11:48:20.628Z,73728.00
2017-08-26T11:49:21.677Z,74592.00
2017-08-26T11:50:20.654Z,68704.00
2017-08-26T11:51:20.635Z,74944.00
2017-08-26T11:52:21.191Z,74752.00
2017-08-26T11:53:23.542Z,74112.00
2017-08-26T11:54:20.671Z,73664.00
2017-08-26T11:55:20.639Z,70944.00
2017-08-26T11:56:21.114Z,55712.00
2017-08-26T11:57:20.644Z,72256.00
2017-08-26T11:58:21.281Z,64832.00
2017-08-26T11:59:20.700Z,66336.00
2017-08-26T12:00:22.057Z,68736.00
2017-08-26T12:01:21.054Z,71104.00
2017-08-26T12:02:20.639Z,69216.00
2017-08-26T12:03:20.653Z,67840.00
2017-08-26T12:04:21.144Z,69440.00
2017-08-26T12:05:20.616Z,62304.00
2017-08-26T12:06:20.706Z,69824.00
2017-08-26T12:07:20.636Z,72928.00
2017-08-26T12:08:21.066Z,72256.00
2017-08-26T12:09:20.994Z,69952.00
2017-08-26T12:10:20.653Z,73120.00
2017-08-26T12:11:20.695Z,72320.00
2017-08-26T12:12:21.077Z,71104.00
2017-08-26T12:13:20.724Z,71616.00
2017-08-26T12:14:20.878Z,71584.00
2017-08-26T12:15:21.580Z,68832.00
2017-08-26T12:16:20.709Z,68512.00
2017-08-26T12:17:21.583Z,72896.00
2017-08-26T12:18:21.087Z,74112.00
2017-08-26T12:19:20.648Z,72128.00
2017-08-26T12:20:20.772Z,74080.00
2017-08-26T12:21:20.668Z,74144.00
2017-08-26T12:22:20.628Z,74400.00